createdAt,value
2019-05-11T00:00:23.156Z,13.33
2019-05-11T00:02:51.188Z,13.07
2019-05-11T00:05:19.187Z,14.07
2019-05-11T00:07:47.334Z,12.87
2019-05-11T00:10:15.511Z,13.83
2019-05-11T00:12:46.444Z,14.10
2019-05-11T00:15:14.108Z,13.90
2019-05-11T00:17:43.164Z,13.13
2019-05-11T00:20:11.178Z,12.70
2019-05-11T00:22:38.839Z,12.27
2019-05-11T00:25:06.720Z,14.20
2019-05-11T00:27:34.571Z,14.00
2019-05-11T00:30:02.183Z,13.50
2019-05-11T00:32:29.615Z,13.87
2019-05-11T00:34:57.653Z,13.73
2019-05-11T00:37:25.731Z,14.20
2019-05-11T00:39:54.108Z,13.77
2019-05-11T00:42:22.374Z,13.63
2019-05-11T00:44:49.743Z,12.57
2019-05-11T00:47:17.313Z,13.47
2019-05-11T00:49:45.300Z,14.13
2019-05-11T00:52:12.670Z,13.90
2019-05-11T00:54:40.696Z,13.20
2019-05-11T00:57:08.668Z,15.03
2019-05-11T00:59:36.271Z,14.30
2019-05-11T01:02:04.708Z,14.20
2019-05-11T01:04:32.328Z,14.87
2019-05-11T01:06:59.977Z,14.90
2019-05-11T01:09:28.233Z,15.73
2019-05-11T01:11:56.402Z,14.37
2019-05-11T01:14:24.960Z,16.63
2019-05-11T01:16:52.490Z,15.57
2019-05-11T01:19:20.685Z,14.73
2019-05-11T01:21:48.696Z,13.30
2019-05-11T01:24:16.222Z,14.77
2019-05-11T01:26:43.785Z,14.90
2019-05-11T01:29:11.577Z,15.67
2019-05-11T01:31:39.520Z,16.03
2019-05-11T01:34:10.462Z,15.80
2019-05-11T01:36:38.154Z,14.33
2019-05-11T01:39:06.249Z,14.73
2019-05-11T01:41:33.748Z,14.10
2019-05-11T01:44:01.308Z,13.93
2019-05-11T01:46:29.174Z,13.40
2019-05-11T01:48:57.332Z,12.20
2019-05-11T01:51:25.039Z,14.20
2019-05-11T01:53:52.707Z,14.40
2019-05-11T01:56:20.344Z,12.80
2019-05-11T01:58:47.866Z,13.80
2019-05-11T02:01:16.185Z,13.20
2019-05-11T02:03:44.015Z,12.60
2019-05-11T02:06:11.422Z,12.13
2019-05-11T02:08:38.839Z,12.90
2019-05-11T02:11:15.462Z,12.00
2019-05-11T02:13:35.817Z,12.73
2019-05-11T02:16:03.212Z,11.70
2019-05-11T02:18:31.167Z,11.03
2019-05-11T02:20:59.010Z,11.50
2019-05-11T02:23:26.659Z,12.40
2019-05-11T02:25:54.429Z,12.00
2019-05-11T02:28:22.089Z,13.30
2019-05-11T02:30:49.726Z,12.57
2019-05-11T02:33:17.961Z,12.43
2019-05-11T02:35:45.321Z,12.17
2019-05-11T02:38:12.833Z,12.67
2019-05-11T02:40:40.461Z,15.10
2019-05-11T02:43:08.356Z,13.53
2019-05-11T02:45:41.380Z,15.20
2019-05-11T02:48:09.312Z,13.70
2019-05-11T02:50:37.589Z,13.93
2019-05-11T02:53:05.144Z,12.67
2019-05-11T02:55:33.770Z,12.50
2019-05-11T02:58:01.973Z,12.90
2019-05-11T03:00:40.576Z,13.60
2019-05-11T03:03:08.527Z,13.87
2019-05-11T03:05:36.187Z,12.40
2019-05-11T03:08:04.467Z,12.70
2019-05-11T03:10:33.133Z,11.93
2019-05-11T03:13:00.696Z,13.37
2019-05-11T03:15:28.900Z,14.87
2019-05-11T03:17:57.350Z,13.00
2019-05-11T03:20:25.726Z,13.97
2019-05-11T03:22:53.910Z,14.13
2019-05-11T03:25:21.692Z,12.73
2019-05-11T03:27:50.306Z,13.17
2019-05-11T03:30:18.859Z,12.83
2019-05-11T03:32:47.104Z,13.90
2019-05-11T03:35:17.417Z,12.17
2019-05-11T03:37:48.161Z,12.30
2019-05-11T03:40:16.672Z,12.17
2019-05-11T03:42:44.747Z,12.83
2019-05-11T03:45:13.723Z,12.80
2019-05-11T03:47:42.642Z,13.93
2019-05-11T03:50:15.987Z,12.93
2019-05-11T03:52:44.389Z,13.20
2019-05-11T03:55:13.649Z,12.50
2019-05-11T03:57:48.204Z,13.40
2019-05-11T04:00:28.335Z,12.80
2019-05-11T04:02:58.608Z,12.97
2019-05-11T04:05:27.248Z,14.17
2019-05-11T04:08:01.214Z,12.80
2019-05-11T04:10:34.877Z,13.87
2019-05-11T04:13:02.403Z,12.80
2019-05-11T04:15:30.727Z,11.87
2019-05-11T04:18:01.061Z,13.50
2019-05-11T04:20:30.795Z,12.13
2019-05-11T04:23:06.998Z,13.50
2019-05-11T04:25:35.198Z,12.60
2019-05-11T04:28:15.322Z,13.60
2019-05-11T04:30:44.160Z,13.77
2019-05-11T04:33:20.735Z,13.47
2019-05-11T04:35:50.511Z,13.30
2019-05-11T04:38:19.378Z,13.73
2019-05-11T04:40:47.579Z,13.57
2019-05-11T04:43:18.734Z,13.13
2019-05-11T04:45:46.668Z,11.80
2019-05-11T04:48:14.555Z,13.57
2019-05-11T04:50:48.436Z,13.33
2019-05-11T04:53:22.418Z,15.97
2019-05-11T04:55:51.896Z,17.77
2019-05-11T04:58:20.784Z,15.00
2019-05-11T05:00:58.718Z,13.97
2019-05-11T05:03:40.437Z,16.00
2019-05-11T05:06:20.811Z,15.00
2019-05-11T05:08:37.865Z,19.57
2019-05-11T05:11:06.614Z,25.87
2019-05-11T05:13:37.846Z,20.43
2019-05-11T05:16:20.519Z,15.20
2019-05-11T05:18:58.045Z,15.63
2019-05-11T05:21:29.973Z,15.00
2019-05-11T05:23:58.890Z,13.93
2019-05-11T05:26:26.659Z,14.47
2019-05-11T05:28:56.239Z,16.50
2019-05-11T05:31:25.016Z,15.13
2019-05-11T05:33:53.237Z,14.00
2019-05-11T05:36:21.119Z,14.00
2019-05-11T05:38:49.061Z,13.67
2019-05-11T05:41:17.292Z,16.27
2019-05-11T05:43:45.032Z,27.57
2019-05-11T05:46:13.079Z,22.83
2019-05-11T05:48:41.279Z,22.00
2019-05-11T05:51:09.861Z,20.20
2019-05-11T05:53:37.675Z,18.50
2019-05-11T05:56:05.542Z,17.47
2019-05-11T05:58:33.332Z,19.20
2019-05-11T06:01:01.546Z,19.30
2019-05-11T06:03:29.872Z,19.23
2019-05-11T06:05:57.479Z,20.27
2019-05-11T06:08:25.469Z,24.00
2019-05-11T06:10:53.455Z,21.17
2019-05-11T06:13:22.094Z,23.90
2019-05-11T06:15:50.406Z,28.03
2019-05-11T06:18:19.016Z,27.17
2019-05-11T06:20:46.595Z,46.90
2019-05-11T06:23:15.555Z,53.60
2019-05-11T06:25:44.450Z,37.73
2019-05-11T06:28:12.201Z,30.43
2019-05-11T06:30:39.806Z,29.83
2019-05-11T06:33:08.549Z,26.30
2019-05-11T06:35:36.492Z,25.93
2019-05-11T06:38:05.886Z,26.70
2019-05-11T06:40:33.900Z,26.07
2019-05-11T06:43:01.900Z,27.90
2019-05-11T06:45:30.260Z,28.27
2019-05-11T06:47:58.549Z,28.70
2019-05-11T06:50:26.611Z,27.63
2019-05-11T06:52:54.955Z,25.80
2019-05-11T06:55:22.588Z,29.17
2019-05-11T06:57:50.601Z,28.97
2019-05-11T07:00:18.747Z,27.53
2019-05-11T07:02:46.817Z,30.70
2019-05-11T07:05:14.827Z,30.60
2019-05-11T07:07:47.988Z,28.60
2019-05-11T07:10:15.891Z,41.20
2019-05-11T07:12:44.216Z,40.60
2019-05-11T07:15:12.614Z,34.20
2019-05-11T07:17:41.588Z,32.47
2019-05-11T07:20:09.485Z,28.50
2019-05-11T07:22:37.749Z,28.10
2019-05-11T07:25:06.213Z,30.00
2019-05-11T07:27:34.194Z,29.97
2019-05-11T07:30:01.735Z,29.43
2019-05-11T07:32:30.009Z,31.30
2019-05-11T07:35:00.040Z,30.67
2019-05-11T07:37:32.061Z,30.87
2019-05-11T07:39:59.796Z,31.30
2019-05-11T07:42:28.753Z,30.60
2019-05-11T07:44:58.247Z,28.97
2019-05-11T07:47:27.819Z,32.67
2019-05-11T07:49:57.966Z,30.70
2019-05-11T07:52:28.761Z,30.30
2019-05-11T07:54:57.996Z,33.27
2019-05-11T07:57:25.636Z,35.03
2019-05-11T07:59:53.434Z,33.83
2019-05-11T08:02:21.187Z,29.60
2019-05-11T08:04:49.083Z,31.17
2019-05-11T08:07:18.090Z,29.97
2019-05-11T08:09:48.350Z,28.50
2019-05-11T08:12:19.204Z,30.93
2019-05-11T08:14:58.961Z,27.60
2019-05-11T08:17:18.631Z,30.20
2019-05-11T08:19:47.646Z,28.40
2019-05-11T08:22:15.617Z,32.97
2019-05-11T08:24:44.073Z,32.10
2019-05-11T08:27:18.707Z,36.47
2019-05-11T08:29:48.808Z,38.30
2019-05-11T08:32:18.319Z,35.67
2019-05-11T08:34:46.458Z,34.27
2019-05-11T08:37:14.682Z,35.17
2019-05-11T08:39:42.557Z,36.43
2019-05-11T08:42:10.190Z,35.10
2019-05-11T08:44:38.172Z,35.80
2019-05-11T08:47:08.467Z,35.50
2019-05-11T08:49:38.087Z,33.87
2019-05-11T08:52:08.010Z,36.37
2019-05-11T08:54:35.487Z,34.07
2019-05-11T08:57:03.611Z,35.27
2019-05-11T08:59:31.289Z,35.27
2019-05-11T09:02:00.575Z,33.03
2019-05-11T09:04:28.952Z,33.33
2019-05-11T09:06:58.631Z,30.97
2019-05-11T09:09:28.704Z,28.83
2019-05-11T09:11:58.838Z,33.53
2019-05-11T09:14:28.355Z,42.77
2019-05-11T09:16:57.755Z,31.97
2019-05-11T09:19:31.697Z,30.67
2019-05-11T09:22:03.183Z,30.60
2019-05-11T09:24:31.090Z,29.50
2019-05-11T09:26:59.089Z,26.83
2019-05-11T09:29:28.140Z,23.70
2019-05-11T09:31:58.214Z,22.90
2019-05-11T09:34:28.639Z,22.27
2019-05-11T09:36:58.629Z,21.97
2019-05-11T09:39:28.037Z,19.70
2019-05-11T09:41:58.462Z,20.10
2019-05-11T09:44:29.603Z,16.90
2019-05-11T09:47:02.375Z,15.80
2019-05-11T09:49:43.747Z,17.60
2019-05-11T09:52:01.522Z,16.17
2019-05-11T09:54:29.744Z,15.70
2019-05-11T09:57:08.296Z,17.77
2019-05-11T09:59:38.792Z,24.77
2019-05-11T10:02:07.976Z,18.53
2019-05-11T10:04:37.995Z,16.73
2019-05-11T10:07:12.034Z,17.43
2019-05-11T10:09:40.217Z,15.27
2019-05-11T10:12:08.446Z,16.47
2019-05-11T10:14:40.165Z,16.70
2019-05-11T10:17:08.827Z,16.10
2019-05-11T10:19:36.772Z,15.87
2019-05-11T10:22:08.175Z,21.90
2019-05-11T10:24:38.546Z,21.73
2019-05-11T10:27:08.287Z,21.07
2019-05-11T10:29:38.269Z,21.07
2019-05-11T10:32:07.990Z,20.77
2019-05-11T10:34:38.451Z,20.67
2019-05-11T10:37:05.792Z,19.40
2019-05-11T10:39:33.667Z,19.63
2019-05-11T10:42:02.066Z,18.97
2019-05-11T10:44:30.926Z,18.60
2019-05-11T10:46:59.104Z,25.30
2019-05-11T10:49:28.922Z,34.57
2019-05-11T10:51:58.467Z,22.23
2019-05-11T10:54:28.472Z,14.93
2019-05-11T10:56:57.905Z,14.27
2019-05-11T10:59:28.188Z,11.80
2019-05-11T11:01:55.653Z,12.00
2019-05-11T11:04:24.403Z,10.70
2019-05-11T11:06:52.058Z,11.77
2019-05-11T11:09:19.651Z,11.50
2019-05-11T11:11:48.819Z,12.43
2019-05-11T11:14:18.044Z,10.60
2019-05-11T11:16:47.921Z,9.77
2019-05-11T11:19:18.335Z,9.90
2019-05-11T11:21:48.754Z,15.10
2019-05-11T11:24:18.189Z,20.07
2019-05-11T11:26:48.625Z,12.73
2019-05-11T11:29:17.898Z,10.40
2019-05-11T11:31:48.183Z,10.23
2019-05-11T11:34:18.560Z,8.47
2019-05-11T11:36:48.079Z,8.87
2019-05-11T11:39:15.948Z,7.30
2019-05-11T11:41:44.231Z,7.30
2019-05-11T11:44:12.490Z,7.93
2019-05-11T11:46:50.820Z,6.00
2019-05-11T11:49:10.318Z,6.50
2019-05-11T11:51:38.462Z,6.30
2019-05-11T11:54:08.656Z,7.07
2019-05-11T11:56:38.117Z,6.80
2019-05-11T11:59:08.541Z,7.73
2019-05-11T12:01:40.540Z,6.50
2019-05-11T12:04:08.765Z,7.13
2019-05-11T12:06:39.747Z,7.27
2019-05-11T12:09:08.770Z,5.87
2019-05-11T12:11:38.407Z,6.73
2019-05-11T12:14:08.491Z,6.37
2019-05-11T12:16:36.107Z,8.77
2019-05-11T12:19:05.432Z,15.50
2019-05-11T12:21:33.097Z,14.87
2019-05-11T12:24:00.802Z,9.77
2019-05-11T12:26:28.935Z,5.50
2019-05-11T12:28:57.720Z,6.07
2019-05-11T12:31:28.576Z,4.90
2019-05-11T12:33:58.461Z,5.60
2019-05-11T12:36:27.936Z,5.43
2019-05-11T12:38:58.047Z,5.03
2019-05-11T12:41:27.903Z,5.70
2019-05-11T12:43:55.116Z,5.13
2019-05-11T12:46:23.286Z,6.77
2019-05-11T12:48:51.431Z,5.07
2019-05-11T12:51:19.203Z,4.43
2019-05-11T12:53:47.726Z,6.60
2019-05-11T12:56:18.737Z,7.00
2019-05-11T12:58:46.195Z,5.03
2019-05-11T13:01:13.889Z,5.13
2019-05-11T13:03:42.153Z,5.63
2019-05-11T13:06:10.329Z,5.37
2019-05-11T13:08:38.858Z,4.60
2019-05-11T13:11:07.870Z,4.73
2019-05-11T13:13:37.643Z,5.00
2019-05-11T13:16:05.525Z,4.20
2019-05-11T13:18:33.184Z,5.20
2019-05-11T13:21:01.584Z,4.73
2019-05-11T13:23:29.759Z,6.47
2019-05-11T13:25:58.502Z,5.07
2019-05-11T13:28:28.251Z,6.93
2019-05-11T13:30:57.971Z,5.33
2019-05-11T13:33:27.834Z,4.90
2019-05-11T13:35:57.722Z,4.77
2019-05-11T13:38:28.311Z,5.47
2019-05-11T13:40:59.185Z,4.33
2019-05-11T13:43:28.064Z,4.30
2019-05-11T13:45:58.241Z,4.50
2019-05-11T13:48:28.000Z,5.10
2019-05-11T13:50:55.170Z,4.53
2019-05-11T13:53:23.759Z,4.53
2019-05-11T13:55:51.357Z,5.90
2019-05-11T13:58:20.036Z,5.20
2019-05-11T14:00:48.167Z,4.87
2019-05-11T14:03:18.237Z,4.80
2019-05-11T14:05:48.135Z,4.50
2019-05-11T14:08:18.117Z,4.20
2019-05-11T14:10:45.684Z,5.40
2019-05-11T14:13:13.720Z,4.60
2019-05-11T14:15:42.372Z,3.90
2019-05-11T14:18:11.981Z,3.73
2019-05-11T14:20:40.260Z,4.00
2019-05-11T14:23:08.458Z,8.23
2019-05-11T14:25:38.038Z,10.40
2019-05-11T14:28:08.852Z,6.33
2019-05-11T14:30:38.116Z,3.93
2019-05-11T14:33:08.505Z,3.47
2019-05-11T14:35:35.727Z,3.37
2019-05-11T14:38:04.286Z,3.30
2019-05-11T14:40:32.844Z,4.40
2019-05-11T14:43:00.562Z,3.03
2019-05-11T14:45:28.779Z,2.47
2019-05-11T14:47:58.268Z,3.90
2019-05-11T14:50:28.084Z,5.10
2019-05-11T14:52:58.114Z,4.40
2019-05-11T14:55:25.936Z,5.60
2019-05-11T14:57:53.884Z,4.30
2019-05-11T15:00:22.326Z,3.93
2019-05-11T15:02:50.189Z,4.00
2019-05-11T15:05:19.424Z,2.93
2019-05-11T15:07:48.449Z,3.13
2019-05-11T15:10:18.798Z,3.50
2019-05-11T15:12:48.936Z,3.87
2019-05-11T15:15:18.713Z,3.43
2019-05-11T15:17:49.238Z,3.73
2019-05-11T15:20:17.763Z,3.57
2019-05-11T15:22:48.676Z,2.80
2019-05-11T15:25:18.882Z,2.90
2019-05-11T15:27:48.840Z,2.97
2019-05-11T15:30:18.219Z,3.30
2019-05-11T15:32:48.218Z,9.63
2019-05-11T15:35:18.615Z,7.10
2019-05-11T15:37:47.862Z,3.63
2019-05-11T15:40:20.671Z,4.63
2019-05-11T15:42:48.829Z,3.20
2019-05-11T15:45:18.711Z,2.97
2019-05-11T15:47:48.658Z,2.93
2019-05-11T15:50:18.931Z,3.40
2019-05-11T15:52:48.849Z,2.30
2019-05-11T15:55:18.785Z,2.67
2019-05-11T15:57:48.331Z,2.83
2019-05-11T16:00:17.292Z,2.70
2019-05-11T16:02:45.242Z,2.73
2019-05-11T16:05:13.742Z,3.27
2019-05-11T16:07:42.841Z,2.30
2019-05-11T16:10:11.260Z,2.90
2019-05-11T16:12:39.200Z,3.00
2019-05-11T16:15:08.911Z,2.50
2019-05-11T16:17:40.074Z,2.40
2019-05-11T16:20:08.817Z,3.00
2019-05-11T16:22:38.496Z,1.90
2019-05-11T16:25:08.603Z,3.07
2019-05-11T16:27:37.902Z,3.20
2019-05-11T16:30:07.263Z,9.50
2019-05-11T16:32:35.271Z,4.67
2019-05-11T16:35:03.805Z,2.33
2019-05-11T16:37:31.702Z,2.00
2019-05-11T16:39:59.314Z,2.47
2019-05-11T16:42:27.667Z,2.30
2019-05-11T16:44:57.762Z,2.13
2019-05-11T16:47:28.380Z,1.93
2019-05-11T16:49:58.014Z,4.00
2019-05-11T16:52:28.012Z,2.50
2019-05-11T16:54:58.329Z,1.77
2019-05-11T16:57:26.224Z,1.70
2019-05-11T16:59:53.683Z,2.00
2019-05-11T17:02:21.541Z,2.13
2019-05-11T17:04:48.969Z,2.47
2019-05-11T17:07:16.757Z,2.60
2019-05-11T17:09:44.618Z,1.90
2019-05-11T17:12:12.634Z,2.27
2019-05-11T17:14:58.436Z,2.33
2019-05-11T17:17:27.720Z,2.73
2019-05-11T17:19:58.776Z,2.37
2019-05-11T17:22:28.185Z,2.17
2019-05-11T17:24:58.773Z,1.97
2019-05-11T17:27:28.326Z,2.20
2019-05-11T17:29:59.119Z,2.30
2019-05-11T17:32:29.181Z,2.07
2019-05-11T17:34:59.548Z,12.20
2019-05-11T17:37:28.526Z,6.03
2019-05-11T17:39:58.652Z,2.60
2019-05-11T17:42:26.823Z,2.47
2019-05-11T17:44:54.717Z,2.63
2019-05-11T17:47:23.776Z,2.70
2019-05-11T17:49:59.984Z,2.30
2019-05-11T17:52:21.694Z,2.30
2019-05-11T17:54:50.279Z,3.20
2019-05-11T17:57:19.145Z,3.00
2019-05-11T17:59:47.634Z,3.30
2019-05-11T18:02:17.533Z,2.07
2019-05-11T18:04:45.817Z,2.60
2019-05-11T18:07:25.217Z,1.93
2019-05-11T18:09:44.681Z,1.93
2019-05-11T18:12:12.907Z,2.00
2019-05-11T18:14:40.759Z,2.10
2019-05-11T18:17:10.107Z,2.20
2019-05-11T18:19:37.964Z,2.23
2019-05-11T18:22:05.661Z,2.23
2019-05-11T18:24:33.566Z,1.90
2019-05-11T18:27:01.636Z,1.80
2019-05-11T18:29:29.197Z,1.80
2019-05-11T18:31:57.956Z,1.97
2019-05-11T18:34:25.732Z,1.93
2019-05-11T18:36:53.697Z,2.03
2019-05-11T18:39:23.230Z,1.90
2019-05-11T18:41:52.197Z,1.93
2019-05-11T18:44:21.321Z,2.00
2019-05-11T18:46:49.587Z,2.00
2019-05-11T18:49:18.039Z,2.53
2019-05-11T18:51:48.155Z,1.77
2019-05-11T18:54:15.752Z,2.30
2019-05-11T18:56:43.434Z,2.10
2019-05-11T18:59:14.349Z,1.70
2019-05-11T19:01:42.730Z,1.97
2019-05-11T19:04:10.915Z,2.30
2019-05-11T19:06:39.376Z,2.47
2019-05-11T19:09:07.397Z,2.20
2019-05-11T19:11:35.472Z,2.33
2019-05-11T19:14:04.212Z,2.67
2019-05-11T19:16:33.190Z,2.57
2019-05-11T19:19:01.790Z,2.00
2019-05-11T19:21:30.709Z,2.53
2019-05-11T19:24:01.843Z,2.57
2019-05-11T19:26:35.159Z,2.43
2019-05-11T19:29:08.941Z,2.17
2019-05-11T19:31:44.264Z,1.40
2019-05-11T19:34:17.771Z,2.33
2019-05-11T19:36:57.950Z,1.90
2019-05-11T19:39:34.854Z,2.43
2019-05-11T19:42:07.693Z,1.53
2019-05-11T19:44:38.657Z,2.00
2019-05-11T19:47:11.283Z,2.00
2019-05-11T19:49:47.799Z,4.50
2019-05-11T19:52:17.679Z,2.70
2019-05-11T19:54:45.644Z,1.50
2019-05-11T19:57:13.557Z,1.57
2019-05-11T19:59:41.513Z,1.63
2019-05-11T20:02:09.456Z,1.80
2019-05-11T20:04:38.723Z,2.10
2019-05-11T20:07:08.761Z,2.60
2019-05-11T20:09:38.694Z,1.63
2019-05-11T20:12:06.830Z,1.23
2019-05-11T20:14:37.286Z,1.80
2019-05-11T20:17:04.939Z,1.73
2019-05-11T20:19:32.803Z,1.70
2019-05-11T20:22:00.972Z,1.40
2019-05-11T20:24:28.479Z,2.20
2019-05-11T20:26:56.126Z,1.50
2019-05-11T20:29:23.641Z,1.50
2019-05-11T20:31:51.848Z,1.60
2019-05-11T20:34:20.011Z,2.07
2019-05-11T20:36:48.095Z,1.87
2019-05-11T20:39:17.942Z,1.93
2019-05-11T20:41:47.612Z,1.63
2019-05-11T20:44:14.810Z,1.60
2019-05-11T20:46:42.845Z,1.60
2019-05-11T20:49:10.535Z,1.53
2019-05-11T20:51:38.026Z,1.33
2019-05-11T20:54:05.454Z,1.47
2019-05-11T20:56:33.356Z,2.27
2019-05-11T20:59:03.695Z,1.60
2019-05-11T21:01:31.314Z,1.67
2019-05-11T21:03:58.918Z,1.37
2019-05-11T21:06:28.959Z,1.80
2019-05-11T21:08:56.122Z,1.77
2019-05-11T21:11:23.804Z,2.00
2019-05-11T21:13:52.204Z,2.27
2019-05-11T21:16:19.718Z,2.77
2019-05-11T21:18:47.736Z,1.67
2019-05-11T21:21:16.043Z,1.83
2019-05-11T21:23:43.885Z,1.73
2019-05-11T21:26:11.356Z,1.40
2019-05-11T21:28:39.435Z,1.50
2019-05-11T21:31:08.042Z,1.70
2019-05-11T21:33:37.840Z,1.70
2019-05-11T21:36:05.265Z,1.90
2019-05-11T21:38:33.531Z,2.83
2019-05-11T21:41:01.220Z,2.33
2019-05-11T21:43:28.785Z,1.90
2019-05-11T21:45:58.199Z,2.03
2019-05-11T21:48:25.435Z,1.47
2019-05-11T21:50:53.206Z,2.17
2019-05-11T21:53:20.804Z,3.10
2019-05-11T21:55:49.037Z,2.30
2019-05-11T21:58:18.333Z,1.83
2019-05-11T22:00:48.892Z,1.67
2019-05-11T22:03:18.846Z,2.03
2019-05-11T22:05:48.520Z,1.80
2019-05-11T22:08:17.889Z,2.10
2019-05-11T22:10:45.533Z,1.93
2019-05-11T22:13:13.620Z,2.33
2019-05-11T22:15:41.475Z,1.90
2019-05-11T22:18:09.408Z,2.30
2019-05-11T22:20:40.560Z,2.00
2019-05-11T22:23:08.477Z,1.83
2019-05-11T22:25:37.989Z,2.00
2019-05-11T22:28:05.415Z,1.50
2019-05-11T22:30:33.513Z,1.43
2019-05-11T22:33:01.054Z,2.07
2019-05-11T22:35:28.842Z,1.80
2019-05-11T22:37:57.848Z,1.70
2019-05-11T22:40:28.090Z,2.03
2019-05-11T22:42:55.224Z,1.80
2019-05-11T22:45:22.785Z,2.30
2019-05-11T22:47:50.612Z,1.80
2019-05-11T22:50:18.652Z,2.70
2019-05-11T22:52:48.413Z,1.70
2019-05-11T22:55:18.602Z,2.07
2019-05-11T22:57:45.959Z,1.70
2019-05-11T23:00:14.188Z,2.40
2019-05-11T23:02:41.902Z,1.90
2019-05-11T23:05:10.652Z,1.90
2019-05-11T23:07:41.103Z,2.07
2019-05-11T23:10:08.763Z,2.50
2019-05-11T23:12:56.464Z,1.63
2019-05-11T23:15:23.745Z,2.00
2019-05-11T23:17:51.276Z,1.83
2019-05-11T23:20:18.902Z,1.90
2019-05-11T23:22:56.661Z,2.17
2019-05-11T23:25:18.256Z,2.07
2019-05-11T23:27:48.576Z,1.70
2019-05-11T23:30:19.363Z,1.73
2019-05-11T23:32:48.479Z,2.07
2019-05-11T23:35:18.429Z,1.73
2019-05-11T23:37:45.482Z,2.20
2019-05-11T23:40:13.759Z,1.90
2019-05-11T23:42:42.128Z,2.20
2019-05-11T23:45:13.667Z,1.90
2019-05-11T23:47:41.504Z,2.17
2019-05-11T23:50:09.689Z,2.37
2019-05-11T23:52:38.023Z,1.83
2019-05-11T23:55:08.182Z,1.77
2019-05-11T23:57:37.971Z,1.43
